createdAt,value
2017-04-21T00:00:12.127Z,1021.87
2017-04-21T00:01:12.812Z,1021.78
2017-04-21T00:02:13.191Z,1021.79
2017-04-21T00:03:13.869Z,1021.75
2017-04-21T00:04:14.251Z,1021.74
2017-04-21T00:05:14.796Z,1021.75
2017-04-21T00:06:15.313Z,1021.74
2017-04-21T00:07:15.994Z,1021.73
2017-04-21T00:08:16.377Z,1021.71
2017-04-21T00:09:16.905Z,1021.70
2017-04-21T00:10:17.432Z,1021.70
2017-04-21T00:11:17.960Z,1021.72
2017-04-21T00:12:18.496Z,1021.70
2017-04-21T00:13:19.020Z,1021.71
2017-04-21T00:14:19.549Z,1021.71
2017-04-21T00:15:20.071Z,1021.68
2017-04-21T00:16:20.606Z,1021.64
2017-04-21T00:17:21.133Z,1021.61
2017-04-21T00:18:21.670Z,1021.63
2017-04-21T00:19:22.196Z,1021.62
2017-04-21T00:20:22.726Z,1021.56
2017-04-21T00:21:23.255Z,1021.59
2017-04-21T00:22:23.785Z,1021.55
2017-04-21T00:23:24.312Z,1021.53
2017-04-21T00:24:24.846Z,1021.49
2017-04-21T00:25:25.400Z,1021.44
2017-04-21T00:26:25.910Z,1021.49
2017-04-21T00:27:26.434Z,1021.44
2017-04-21T00:28:26.968Z,1021.48
2017-04-21T00:29:27.490Z,1021.47
2017-04-21T00:30:28.019Z,1021.50
2017-04-21T00:31:28.699Z,1021.52
2017-04-21T00:32:29.081Z,1021.50
2017-04-21T00:33:29.615Z,1021.43
2017-04-21T00:34:30.139Z,1021.47
2017-04-21T00:35:30.668Z,1021.49
2017-04-21T00:36:31.199Z,1021.47
2017-04-21T00:37:31.724Z,1021.44
2017-04-21T00:38:32.254Z,1021.48
2017-04-21T00:39:32.937Z,1021.50
2017-04-21T00:40:33.325Z,1021.45
2017-04-21T00:41:33.857Z,1021.47
2017-04-21T00:42:34.396Z,1021.50
2017-04-21T00:43:34.933Z,1021.42
2017-04-21T00:44:35.462Z,1021.46
2017-04-21T00:45:36.137Z,1021.41
2017-04-21T00:46:36.522Z,1021.43
2017-04-21T00:47:37.048Z,1021.45
2017-04-21T00:48:37.579Z,1021.41
2017-04-21T00:49:38.109Z,1021.35
2017-04-21T00:50:38.643Z,1021.35
2017-04-21T00:51:39.168Z,1021.36
2017-04-21T00:52:39.693Z,1021.33
2017-04-21T00:53:40.231Z,1021.31
2017-04-21T00:54:40.754Z,1021.28
2017-04-21T00:55:41.432Z,1021.38
2017-04-21T00:56:41.814Z,1021.34
2017-04-21T00:57:42.491Z,1021.28
2017-04-21T00:58:42.875Z,1021.28
2017-04-21T00:59:43.401Z,1021.32
2017-04-21T01:00:43.928Z,1021.26
2017-04-21T01:01:44.495Z,1021.29
2017-04-21T01:02:44.992Z,1021.33
2017-04-21T01:04:46.053Z,1021.27
2017-04-21T01:05:46.573Z,1021.23
2017-04-21T01:06:47.111Z,1021.34
2017-04-21T01:07:47.637Z,1021.27
2017-04-21T01:08:48.165Z,1021.24
2017-04-21T01:09:48.694Z,1021.26
2017-04-21T01:10:49.226Z,1021.24
2017-04-21T01:11:49.749Z,1021.24
2017-04-21T01:12:50.287Z,1021.18
2017-04-21T01:13:50.806Z,1021.25
2017-04-21T01:14:51.340Z,1021.20
2017-04-21T01:15:51.868Z,1021.22
2017-04-21T01:16:52.399Z,1021.25
2017-04-21T01:17:52.932Z,1021.22
2017-04-21T01:18:53.456Z,1021.28
2017-04-21T01:19:53.992Z,1021.26
2017-04-21T01:20:54.518Z,1021.29
2017-04-21T01:21:55.053Z,1021.26
2017-04-21T01:22:55.589Z,1021.29
2017-04-21T01:23:56.121Z,1021.25
2017-04-21T01:24:56.799Z,1021.23
2017-04-21T01:25:57.331Z,1021.21
2017-04-21T01:26:57.717Z,1021.19
2017-04-21T01:27:58.242Z,1021.22
2017-04-21T01:28:58.772Z,1021.20
2017-04-21T01:29:59.453Z,1021.16
2017-04-21T01:30:59.833Z,1021.17
2017-04-21T01:32:00.364Z,1021.14
2017-04-21T01:33:00.897Z,1021.18
2017-04-21T01:34:01.429Z,1021.15
2017-04-21T01:35:01.956Z,1021.16
2017-04-21T01:36:02.483Z,1021.21
2017-04-21T01:37:03.016Z,1021.19
2017-04-21T01:38:03.543Z,1021.18
2017-04-21T01:39:04.073Z,1021.14
2017-04-21T01:40:04.599Z,1021.15
2017-04-21T01:41:05.132Z,1021.11
2017-04-21T01:42:05.809Z,1021.09
2017-04-21T01:43:06.196Z,1021.10
2017-04-21T01:44:06.717Z,1021.07
2017-04-21T01:45:07.252Z,1021.06
2017-04-21T01:46:07.771Z,1021.08
2017-04-21T01:47:08.306Z,1021.05
2017-04-21T01:48:08.841Z,1021.07
2017-04-21T01:49:09.365Z,1021.10
2017-04-21T01:50:09.899Z,1021.06
2017-04-21T01:51:10.452Z,1021.08
2017-04-21T01:52:10.951Z,1021.08
2017-04-21T01:53:11.484Z,1021.06
2017-04-21T01:54:12.016Z,1021.04
2017-04-21T01:55:12.544Z,1021.04
2017-04-21T01:56:13.087Z,1021.04
2017-04-21T01:57:13.600Z,1021.02
2017-04-21T01:58:14.131Z,1021.01
2017-04-21T01:59:14.671Z,1021.06
2017-04-21T02:00:15.219Z,1021.04
2017-04-21T02:01:15.716Z,1021.03
2017-04-21T02:02:16.398Z,1020.99
2017-04-21T02:03:16.779Z,1020.96
2017-04-21T02:04:17.308Z,1020.96
2017-04-21T02:05:17.848Z,1020.98
2017-04-21T02:06:18.381Z,1021.02
2017-04-21T02:07:18.918Z,1021.02
2017-04-21T02:08:19.445Z,1021.00
2017-04-21T02:09:19.977Z,1020.97
2017-04-21T02:10:20.503Z,1020.99
2017-04-21T02:11:21.041Z,1020.94
2017-04-21T02:12:21.561Z,1020.94
2017-04-21T02:13:22.099Z,1020.90
2017-04-21T02:14:22.631Z,1020.94
2017-04-21T02:15:23.153Z,1020.96
2017-04-21T02:16:23.835Z,1020.88
2017-04-21T02:17:24.220Z,1020.88
2017-04-21T02:18:24.894Z,1020.82
2017-04-21T02:19:25.274Z,1020.88
2017-04-21T02:20:25.961Z,1020.79
2017-04-21T02:21:26.332Z,1020.80
2017-04-21T02:22:26.868Z,1020.82
2017-04-21T02:23:27.407Z,1020.76
2017-04-21T02:24:27.926Z,1020.79
2017-04-21T02:25:28.459Z,1020.82
2017-04-21T02:26:28.986Z,1020.84
2017-04-21T02:27:29.516Z,1020.79
2017-04-21T02:28:30.044Z,1020.82
2017-04-21T02:29:30.578Z,1020.80
2017-04-21T02:30:31.256Z,1020.78
2017-04-21T02:31:31.641Z,1020.80
2017-04-21T02:32:32.176Z,1020.80
2017-04-21T02:33:32.698Z,1020.73
2017-04-21T02:34:33.224Z,1020.77
2017-04-21T02:35:33.752Z,1020.74
2017-04-21T02:36:34.282Z,1020.67
2017-04-21T02:37:34.809Z,1020.71
2017-04-21T02:38:35.338Z,1020.67
2017-04-21T02:39:35.874Z,1020.70
2017-04-21T02:40:36.551Z,1020.63
2017-04-21T02:41:36.928Z,1020.61
2017-04-21T02:42:37.494Z,1020.65
2017-04-21T02:43:37.994Z,1020.68
2017-04-21T02:44:38.519Z,1020.65
2017-04-21T02:45:39.054Z,1020.60
2017-04-21T02:46:39.583Z,1020.61
2017-04-21T02:47:40.120Z,1020.65
2017-04-21T02:48:40.649Z,1020.62
2017-04-21T02:49:41.181Z,1020.65
2017-04-21T02:50:41.711Z,1020.67
2017-04-21T02:51:42.242Z,1020.66
2017-04-21T02:52:42.776Z,1020.63
2017-04-21T02:53:43.309Z,1020.65
2017-04-21T02:54:43.834Z,1020.67
2017-04-21T02:55:44.366Z,1020.69
2017-04-21T02:56:44.898Z,1020.67
2017-04-21T02:57:45.431Z,1020.67
2017-04-21T02:58:45.955Z,1020.64
2017-04-21T02:59:46.484Z,1020.57
2017-04-21T03:00:47.016Z,1020.62
2017-04-21T03:01:47.548Z,1020.57
2017-04-21T03:02:48.086Z,1020.61
2017-04-21T03:03:48.607Z,1020.56
2017-04-21T03:04:49.139Z,1020.59
2017-04-21T03:05:49.669Z,1020.61
2017-04-21T03:06:50.198Z,1020.57
2017-04-21T03:07:50.722Z,1020.56
2017-04-21T03:08:51.255Z,1020.54
2017-04-21T03:09:51.784Z,1020.54
2017-04-21T03:10:52.324Z,1020.50
2017-04-21T03:11:52.849Z,1020.52
2017-04-21T03:12:53.524Z,1020.52
2017-04-21T03:13:53.909Z,1020.58
2017-04-21T03:14:54.589Z,1020.58
2017-04-21T03:15:54.968Z,1020.59
2017-04-21T03:16:55.647Z,1020.53
2017-04-21T03:17:56.027Z,1020.53
2017-04-21T03:18:56.557Z,1020.57
2017-04-21T03:19:57.237Z,1020.55
2017-04-21T03:20:57.628Z,1020.57
2017-04-21T03:21:58.153Z,1020.58
2017-04-21T03:22:58.680Z,1020.48
2017-04-21T03:23:59.210Z,1020.56
2017-04-21T03:24:59.752Z,1020.54
2017-04-21T03:26:00.283Z,1020.59
2017-04-21T03:27:00.808Z,1020.55
2017-04-21T03:28:01.336Z,1020.52
2017-04-21T03:29:02.021Z,1020.53
2017-04-21T03:30:02.552Z,1020.51
2017-04-21T03:31:02.951Z,1020.50
2017-04-21T03:32:03.466Z,1020.47
2017-04-21T03:33:04.006Z,1020.51
2017-04-21T03:34:04.525Z,1020.45
2017-04-21T03:35:05.046Z,1020.45
2017-04-21T03:36:05.588Z,1020.45
2017-04-21T03:37:06.268Z,1020.47
2017-04-21T03:38:06.638Z,1020.43
2017-04-21T03:39:07.167Z,1020.47
2017-04-21T03:40:07.726Z,1020.45
2017-04-21T03:41:08.229Z,1020.46
2017-04-21T03:42:08.759Z,1020.40
2017-04-21T03:43:09.285Z,1020.40
2017-04-21T03:44:09.819Z,1020.39
2017-04-21T03:45:10.371Z,1020.42
2017-04-21T03:46:10.878Z,1020.40
2017-04-21T03:47:11.407Z,1020.39
2017-04-21T03:48:11.935Z,1020.39
2017-04-21T03:49:12.622Z,1020.40
2017-04-21T03:50:12.998Z,1020.38
2017-04-21T03:51:13.528Z,1020.35
2017-04-21T03:52:14.058Z,1020.36
2017-04-21T03:53:14.586Z,1020.34
2017-04-21T03:54:15.114Z,1020.27
2017-04-21T03:55:15.642Z,1020.31
2017-04-21T03:56:16.173Z,1020.30
2017-04-21T03:57:16.858Z,1020.31
2017-04-21T03:58:17.232Z,1020.31
2017-04-21T03:59:17.765Z,1020.29
2017-04-21T04:00:18.294Z,1020.28
2017-04-21T04:01:18.842Z,1020.27
2017-04-21T04:02:19.352Z,1020.28
2017-04-21T04:03:19.882Z,1020.32
2017-04-21T04:04:20.415Z,1020.33
2017-04-21T04:05:21.091Z,1020.37
2017-04-21T04:06:21.470Z,1020.36
2017-04-21T04:07:22.152Z,1020.43
2017-04-21T04:08:22.535Z,1020.39
2017-04-21T04:09:23.068Z,1020.38
2017-04-21T04:10:23.607Z,1020.35
2017-04-21T04:11:24.144Z,1020.36
2017-04-21T04:12:24.669Z,1020.36
2017-04-21T04:13:25.202Z,1020.33
2017-04-21T04:14:25.729Z,1020.31
2017-04-21T04:15:26.259Z,1020.31
2017-04-21T04:16:26.791Z,1020.32
2017-04-21T04:17:27.326Z,1020.35
2017-04-21T04:18:27.854Z,1020.31
2017-04-21T04:19:28.389Z,1020.26
2017-04-21T04:20:28.910Z,1020.36
2017-04-21T04:21:29.433Z,1020.31
2017-04-21T04:22:29.963Z,1020.27
2017-04-21T04:23:30.492Z,1020.27
2017-04-21T04:24:31.025Z,1020.28
2017-04-21T04:25:31.551Z,1020.28
2017-04-21T04:26:32.083Z,1020.28
2017-04-21T04:27:32.604Z,1020.33
2017-04-21T04:28:33.139Z,1020.28
2017-04-21T04:29:33.669Z,1020.24
2017-04-21T04:30:34.344Z,1020.29
2017-04-21T04:31:34.881Z,1020.28
2017-04-21T04:32:35.262Z,1020.22
2017-04-21T04:33:35.788Z,1020.21
2017-04-21T04:34:36.317Z,1020.25
2017-04-21T04:35:36.848Z,1020.25
2017-04-21T04:36:37.379Z,1020.23
2017-04-21T04:37:37.917Z,1020.21
2017-04-21T04:38:38.433Z,1020.24
2017-04-21T04:39:39.114Z,1020.26
2017-04-21T04:40:39.497Z,1020.21
2017-04-21T04:41:40.037Z,1020.22
2017-04-21T04:42:40.550Z,1020.14
2017-04-21T04:43:41.076Z,1020.22
2017-04-21T04:44:41.609Z,1020.24
2017-04-21T04:45:42.135Z,1020.21
2017-04-21T04:46:42.665Z,1020.28
2017-04-21T04:47:43.193Z,1020.18
2017-04-21T04:48:43.874Z,1020.18
2017-04-21T04:49:44.425Z,1020.19
2017-04-21T04:50:44.792Z,1020.17
2017-04-21T04:51:45.321Z,1020.17
2017-04-21T04:52:45.857Z,1020.19
2017-04-21T04:53:46.393Z,1020.16
2017-04-21T04:54:46.921Z,1020.19
2017-04-21T04:55:47.456Z,1020.20
2017-04-21T04:56:47.985Z,1020.17
2017-04-21T04:57:48.511Z,1020.19
2017-04-21T04:58:49.044Z,1020.19
2017-04-21T04:59:49.571Z,1020.22
2017-04-21T05:00:50.104Z,1020.24
2017-04-21T05:01:50.787Z,1020.17
2017-04-21T05:02:51.163Z,1020.19
2017-04-21T05:03:51.705Z,1020.19
2017-04-21T05:04:52.229Z,1020.23
2017-04-21T05:05:52.758Z,1020.26
2017-04-21T05:06:53.432Z,1020.21
2017-04-21T05:07:53.814Z,1020.23
2017-04-21T05:08:54.345Z,1020.17
2017-04-21T05:09:54.875Z,1020.16
2017-04-21T05:10:55.405Z,1020.10
2017-04-21T05:11:56.088Z,1020.14
2017-04-21T05:12:56.480Z,1020.17
2017-04-21T05:13:57.006Z,1020.14
2017-04-21T05:14:57.532Z,1020.14
2017-04-21T05:15:58.068Z,1020.08
2017-04-21T05:16:58.584Z,1020.13
2017-04-21T05:17:59.111Z,1020.07
2017-04-21T05:18:59.646Z,1020.13
2017-04-21T05:20:00.175Z,1020.10
2017-04-21T05:21:00.701Z,1020.11
2017-04-21T05:22:01.383Z,1020.12
2017-04-21T05:23:01.763Z,1020.09
2017-04-21T05:24:02.440Z,1020.05
2017-04-21T05:25:02.832Z,1020.06
2017-04-21T05:26:03.364Z,1020.07
2017-04-21T05:27:03.880Z,1020.02
2017-04-21T05:28:04.408Z,1020.00
2017-04-21T05:29:04.934Z,1020.03
2017-04-21T05:30:05.612Z,1020.01
2017-04-21T05:31:05.995Z,1020.02
2017-04-21T05:32:06.526Z,1020.01
2017-04-21T05:33:07.059Z,1019.98
2017-04-21T05:34:07.740Z,1019.98
2017-04-21T05:35:08.118Z,1019.95
2017-04-21T05:36:08.655Z,1019.95
2017-04-21T05:37:09.194Z,1019.95
2017-04-21T05:38:09.868Z,1019.97
2017-04-21T05:39:10.264Z,1020.02
2017-04-21T05:40:10.777Z,1020.00
2017-04-21T05:41:11.308Z,1020.00
2017-04-21T05:42:11.992Z,1019.99
2017-04-21T05:43:12.367Z,1019.99
2017-04-21T05:44:12.902Z,1020.03
2017-04-21T05:45:13.429Z,1020.00
2017-04-21T05:46:13.956Z,1019.96
2017-04-21T05:47:14.489Z,1020.01
2017-04-21T05:48:15.017Z,1020.02
2017-04-21T05:49:15.548Z,1020.02
2017-04-21T05:50:16.073Z,1020.00
2017-04-21T05:51:16.608Z,1020.01
2017-04-21T05:52:17.131Z,1019.98
2017-04-21T05:53:17.666Z,1020.02
2017-04-21T05:54:18.199Z,1019.96
2017-04-21T05:55:18.724Z,1019.96
2017-04-21T05:56:19.253Z,1019.93
2017-04-21T05:57:19.788Z,1019.97
2017-04-21T05:58:20.321Z,1019.97
2017-04-21T05:59:20.860Z,1019.98
2017-04-21T06:00:21.530Z,1020.00
2017-04-21T06:01:21.909Z,1019.95
2017-04-21T06:02:22.440Z,1019.96
2017-04-21T06:03:22.970Z,1019.94
2017-04-21T06:04:23.649Z,1019.95
2017-04-21T06:05:24.027Z,1019.90
2017-04-21T06:06:24.560Z,1019.93
2017-04-21T06:07:25.085Z,1019.93
2017-04-21T06:08:25.615Z,1019.96
2017-04-21T06:09:26.146Z,1019.94
2017-04-21T06:10:26.677Z,1019.98
2017-04-21T06:11:27.207Z,1019.95
2017-04-21T06:12:27.882Z,1019.96
2017-04-21T06:13:28.411Z,1019.92
2017-04-21T06:14:28.804Z,1019.97
2017-04-21T06:15:29.332Z,1019.94
2017-04-21T06:16:29.861Z,1019.90
2017-04-21T06:17:30.409Z,1019.92
2017-04-21T06:18:30.928Z,1019.95
2017-04-21T06:19:31.458Z,1019.91
2017-04-21T06:20:31.979Z,1019.93
2017-04-21T06:21:32.507Z,1019.99
2017-04-21T06:22:33.037Z,1019.96
2017-04-21T06:23:33.565Z,1019.98
2017-04-21T06:24:34.095Z,1019.97
2017-04-21T06:25:34.631Z,1019.98
2017-04-21T06:26:35.153Z,1019.95
2017-04-21T06:27:35.686Z,1019.94
2017-04-21T06:28:36.222Z,1019.96
2017-04-21T06:29:36.754Z,1019.96
2017-04-21T06:30:37.278Z,1019.96
2017-04-21T06:31:37.810Z,1019.93
2017-04-21T06:32:38.336Z,1019.96
2017-04-21T06:33:38.871Z,1019.86
2017-04-21T06:34:39.396Z,1019.90
2017-04-21T06:35:39.928Z,1019.86
2017-04-21T06:36:40.455Z,1019.94
2017-04-21T06:37:40.984Z,1019.89
2017-04-21T06:38:41.659Z,1019.91
2017-04-21T06:39:42.044Z,1019.96
2017-04-21T06:40:42.722Z,1019.89
2017-04-21T06:41:43.106Z,1019.91
2017-04-21T06:42:43.626Z,1019.97
2017-04-21T06:43:44.164Z,1019.95
2017-04-21T06:44:44.842Z,1019.91
2017-04-21T06:45:45.222Z,1019.93
2017-04-21T06:46:45.755Z,1019.94
2017-04-21T06:47:46.286Z,1019.91
2017-04-21T06:48:46.809Z,1019.95
2017-04-21T06:49:47.342Z,1019.90
2017-04-21T06:50:47.872Z,1019.94
2017-04-21T06:51:48.405Z,1019.91
2017-04-21T06:52:48.933Z,1019.99
2017-04-21T06:53:49.465Z,1019.91
2017-04-21T06:54:49.998Z,1019.90
2017-04-21T06:55:50.527Z,1019.92
2017-04-21T06:56:51.058Z,1019.90
2017-04-21T06:57:51.591Z,1019.91
2017-04-21T06:58:52.125Z,1019.94
2017-04-21T06:59:52.658Z,1019.95
2017-04-21T07:00:53.221Z,1019.95
2017-04-21T07:01:54.615Z,1019.91
2017-04-21T07:02:54.241Z,1019.92
2017-04-21T07:03:54.778Z,1019.88
2017-04-21T07:04:55.304Z,1019.87
2017-04-21T07:05:55.839Z,1019.88
2017-04-21T07:06:56.364Z,1019.87
2017-04-21T07:07:56.896Z,1019.88
2017-04-21T07:08:57.420Z,1019.83
2017-04-21T07:09:57.959Z,1019.86
2017-04-21T07:10:58.481Z,1019.88
2017-04-21T07:11:59.020Z,1019.85
2017-04-21T07:12:59.539Z,1019.86
2017-04-21T07:14:00.071Z,1019.89
2017-04-21T07:15:00.602Z,1019.87
2017-04-21T07:16:01.136Z,1019.90
2017-04-21T07:17:01.811Z,1019.88
2017-04-21T07:18:02.194Z,1019.87
2017-04-21T07:19:02.723Z,1019.88
2017-04-21T07:20:03.252Z,1019.87
2017-04-21T07:21:03.928Z,1019.89
2017-04-21T07:22:04.312Z,1019.86
2017-04-21T07:23:04.842Z,1019.85
2017-04-21T07:24:05.373Z,1019.90
2017-04-21T07:25:05.902Z,1019.85
2017-04-21T07:26:06.427Z,1019.89
2017-04-21T07:27:06.955Z,1019.83
2017-04-21T07:28:07.492Z,1019.88
2017-04-21T07:29:08.019Z,1019.90
2017-04-21T07:30:08.551Z,1019.85
2017-04-21T07:31:09.076Z,1019.84
2017-04-21T07:32:09.609Z,1019.80
2017-04-21T07:33:10.146Z,1019.79
2017-04-21T07:34:10.672Z,1019.85
2017-04-21T07:35:11.217Z,1019.84
2017-04-21T07:36:11.731Z,1019.86
2017-04-21T07:37:12.260Z,1019.81
2017-04-21T07:38:12.791Z,1019.85
2017-04-21T07:39:13.596Z,1019.85
2017-04-21T07:40:13.860Z,1019.81
2017-04-21T07:41:14.417Z,1019.78
2017-04-21T07:42:14.935Z,1019.80
2017-04-21T07:43:15.462Z,1019.84
2017-04-21T07:44:15.999Z,1019.86
2017-04-21T07:45:16.523Z,1019.83
2017-04-21T07:46:17.062Z,1019.82
2017-04-21T07:47:17.583Z,1019.83
2017-04-21T07:48:18.120Z,1019.79
2017-04-21T07:49:18.634Z,1019.79
2017-04-21T07:50:19.167Z,1019.78
2017-04-21T07:51:19.693Z,1019.77
2017-04-21T07:52:20.226Z,1019.79
2017-04-21T07:53:20.753Z,1019.76
2017-04-21T07:54:21.287Z,1019.75
2017-04-21T07:55:21.809Z,1019.77
2017-04-21T07:56:22.345Z,1019.72
2017-04-21T07:57:22.865Z,1019.68
2017-04-21T07:58:23.396Z,1019.66
2017-04-21T07:59:23.932Z,1019.63
2017-04-21T08:00:24.463Z,1019.65
2017-04-21T08:01:24.992Z,1019.65
2017-04-21T08:02:25.516Z,1019.70
2017-04-21T08:03:26.047Z,1019.70
2017-04-21T08:04:26.580Z,1019.70
2017-04-21T08:05:27.255Z,1019.70
2017-04-21T08:06:27.639Z,1019.69
2017-04-21T08:07:28.199Z,1019.71
2017-04-21T08:08:28.702Z,1019.70
2017-04-21T08:09:29.217Z,1019.67
2017-04-21T08:10:29.756Z,1019.72
2017-04-21T08:11:30.283Z,1019.69
2017-04-21T08:12:30.808Z,1019.73
2017-04-21T08:13:31.336Z,1019.73
2017-04-21T08:14:31.866Z,1019.75
2017-04-21T08:15:32.393Z,1019.78
2017-04-21T08:16:32.938Z,1019.73
2017-04-21T08:17:33.454Z,1019.72
2017-04-21T08:18:33.986Z,1019.69
2017-04-21T08:19:34.516Z,1019.70
2017-04-21T08:20:35.048Z,1019.71
2017-04-21T08:21:35.584Z,1019.64
2017-04-21T08:22:36.120Z,1019.70
2017-04-21T08:23:36.652Z,1019.68
2017-04-21T08:24:37.184Z,1019.65
2017-04-21T08:25:37.715Z,1019.64
2017-04-21T08:26:38.246Z,1019.63
2017-04-21T08:27:38.781Z,1019.65
2017-04-21T08:28:39.305Z,1019.65
2017-04-21T08:29:39.983Z,1019.65
2017-04-21T08:30:40.508Z,1019.63
2017-04-21T08:31:40.891Z,1019.59
2017-04-21T08:32:41.569Z,1019.58
2017-04-21T08:33:42.100Z,1019.57
2017-04-21T08:34:42.486Z,1019.58
2017-04-21T08:35:43.013Z,1019.59
2017-04-21T08:36:43.540Z,1019.56
2017-04-21T08:37:44.074Z,1019.60
2017-04-21T08:38:44.609Z,1019.55
2017-04-21T08:39:45.131Z,1019.55
2017-04-21T08:40:45.660Z,1019.54
2017-04-21T08:41:46.190Z,1019.56
2017-04-21T08:42:46.724Z,1019.61
2017-04-21T08:43:47.248Z,1019.53
2017-04-21T08:44:47.787Z,1019.49
2017-04-21T08:45:48.308Z,1019.45
2017-04-21T08:46:48.844Z,1019.43
2017-04-21T08:47:49.370Z,1019.43
2017-04-21T08:48:49.912Z,1019.39
2017-04-21T08:49:50.425Z,1019.36
2017-04-21T08:50:51.105Z,1019.35
2017-04-21T08:51:51.489Z,1019.34
2017-04-21T08:52:52.022Z,1019.34
2017-04-21T08:53:52.694Z,1019.32
2017-04-21T08:54:53.077Z,1019.29
2017-04-21T08:55:53.602Z,1019.36
2017-04-21T08:56:54.133Z,1019.28
2017-04-21T08:57:54.681Z,1019.33
2017-04-21T08:58:55.199Z,1019.26
2017-04-21T08:59:55.727Z,1019.26
2017-04-21T09:00:56.256Z,1019.29
2017-04-21T09:01:56.789Z,1019.25
2017-04-21T09:02:57.321Z,1019.21
2017-04-21T09:03:57.851Z,1019.23
2017-04-21T09:04:58.383Z,1019.21
2017-04-21T09:05:58.927Z,1019.17
2017-04-21T09:06:59.450Z,1019.27
2017-04-21T09:07:59.978Z,1019.27
2017-04-21T09:09:00.512Z,1019.20
2017-04-21T09:10:01.038Z,1019.18
2017-04-21T09:11:01.571Z,1019.19
2017-04-21T09:12:02.096Z,1019.16
2017-04-21T09:13:02.772Z,1019.14
2017-04-21T09:14:03.155Z,1019.16
2017-04-21T09:15:03.688Z,1019.15
2017-04-21T09:16:04.229Z,1019.11
2017-04-21T09:17:04.753Z,1019.17
2017-04-21T09:18:05.309Z,1019.10
2017-04-21T09:19:05.806Z,1019.14
2017-04-21T09:20:06.332Z,1019.11
2017-04-21T09:21:06.868Z,1019.06
2017-04-21T09:22:07.393Z,1019.13
2017-04-21T09:23:07.932Z,1019.01
2017-04-21T09:24:08.458Z,1019.11
2017-04-21T09:25:08.991Z,1019.08
2017-04-21T09:26:09.514Z,1019.05
2017-04-21T09:27:10.053Z,1019.03
2017-04-21T09:28:10.728Z,1019.01
2017-04-21T09:29:11.109Z,1019.01
2017-04-21T09:30:11.638Z,1019.00
2017-04-21T09:31:12.353Z,1019.05
2017-04-21T09:32:12.845Z,1019.00
2017-04-21T09:33:13.372Z,1018.98
2017-04-21T09:34:13.769Z,1018.97
2017-04-21T09:35:14.286Z,1018.90
2017-04-21T09:36:14.812Z,1019.02
2017-04-21T09:37:15.346Z,1018.94
2017-04-21T09:38:15.876Z,1018.91
2017-04-21T09:39:16.410Z,1018.99
2017-04-21T09:40:16.943Z,1018.91
2017-04-21T09:41:17.469Z,1018.95
2017-04-21T09:42:17.997Z,1018.97
2017-04-21T09:43:18.529Z,1018.93
2017-04-21T09:44:19.060Z,1018.96
2017-04-21T09:45:19.591Z,1018.89
2017-04-21T09:46:20.121Z,1018.95
2017-04-21T09:47:20.658Z,1018.99
2017-04-21T09:48:21.192Z,1018.97
2017-04-21T09:50:23.698Z,1019.00
2017-04-21T09:51:32.197Z,1018.98
2017-04-21T09:53:23.843Z,1019.01
2017-04-21T09:54:06.190Z,1019.01
2017-04-21T09:57:06.047Z,1019.02
2017-04-21T09:57:10.789Z,1018.97
2017-04-21T09:59:47.413Z,1018.87
2017-04-21T09:59:48.151Z,1018.93
2017-04-21T10:00:04.453Z,1019.00
2017-04-21T10:01:22.008Z,1018.90
2017-04-21T10:04:13.190Z,1018.85
2017-04-21T10:06:25.851Z,1018.81
2017-04-21T10:06:30.728Z,1018.78
2017-04-21T10:06:51.588Z,1018.86
2017-04-21T10:07:27.537Z,1018.89
2017-04-21T10:07:38.360Z,1018.81
2017-04-21T10:07:59.736Z,1018.82
2017-04-21T10:08:31.779Z,1018.77
2017-04-21T10:08:33.232Z,1018.78
2017-04-21T10:09:32.305Z,1018.72
2017-04-21T10:11:33.369Z,1018.74
2017-04-21T10:12:33.894Z,1018.86
2017-04-21T10:13:34.419Z,1018.78
2017-04-21T10:14:34.961Z,1018.83
2017-04-21T10:15:35.499Z,1018.85
2017-04-21T10:16:36.006Z,1018.73
2017-04-21T10:17:36.543Z,1018.75
2017-04-21T10:18:37.071Z,1018.77
2017-04-21T10:19:37.603Z,1018.74
2017-04-21T10:20:38.129Z,1018.67
2017-04-21T10:21:38.661Z,1018.72
2017-04-21T10:22:39.191Z,1018.76
2017-04-21T10:24:40.256Z,1018.70
2017-04-21T10:25:40.781Z,1018.65
2017-04-21T10:26:41.320Z,1018.72
2017-04-21T10:27:41.840Z,1018.78
2017-04-21T10:28:42.377Z,1018.67
2017-04-21T10:29:42.903Z,1018.59
2017-04-21T10:30:43.439Z,1018.55
2017-04-21T10:31:43.972Z,1018.57
2017-04-21T10:32:44.499Z,1018.56
2017-04-21T10:33:45.024Z,1018.54
2017-04-21T10:34:45.551Z,1018.49
2017-04-21T10:35:46.082Z,1018.50
2017-04-21T10:36:46.609Z,1018.46
2017-04-21T10:37:47.168Z,1018.40
2017-04-21T10:38:47.671Z,1018.46
2017-04-21T10:39:48.346Z,1018.43
2017-04-21T10:40:48.727Z,1018.44
2017-04-21T10:41:49.260Z,1018.41
2017-04-21T10:42:49.786Z,1018.39
2017-04-21T10:43:50.319Z,1018.41
2017-04-21T10:44:50.847Z,1018.37
2017-04-21T10:45:51.374Z,1018.39
2017-04-21T10:46:51.906Z,1018.34
2017-04-21T10:47:52.443Z,1018.35
2017-04-21T10:48:52.965Z,1018.30
2017-04-21T10:49:53.642Z,1018.30
2017-04-21T10:50:54.028Z,1018.34
2017-04-21T10:51:54.553Z,1018.29
2017-04-21T10:52:55.100Z,1018.24
2017-04-21T10:53:55.618Z,1018.32
2017-04-21T10:54:56.138Z,1018.32
2017-04-21T10:55:56.671Z,1018.30
2017-04-21T10:56:57.194Z,1018.29
2017-04-21T10:57:57.725Z,1018.25
2017-04-21T10:58:58.267Z,1018.19
2017-04-21T10:59:58.788Z,1018.21
2017-04-21T11:00:59.310Z,1018.24
2017-04-21T11:01:59.840Z,1018.31
2017-04-21T11:03:00.370Z,1018.24
2017-04-21T11:04:00.901Z,1018.23
2017-04-21T11:05:01.431Z,1018.20
2017-04-21T11:06:01.964Z,1018.17
2017-04-21T11:07:02.491Z,1018.13
2017-04-21T11:08:03.048Z,1018.12
2017-04-21T11:09:03.562Z,1018.12
2017-04-21T11:10:04.093Z,1018.18
2017-04-21T11:11:04.659Z,1018.13
2017-04-21T11:12:05.161Z,1018.11
2017-04-21T11:13:05.688Z,1018.07
2017-04-21T11:14:06.222Z,1018.07
2017-04-21T11:15:06.745Z,1018.02
2017-04-21T11:16:07.274Z,1018.01
2017-04-21T11:17:07.815Z,1017.96
2017-04-21T11:18:08.332Z,1017.98
2017-04-21T11:19:09.006Z,1017.98
2017-04-21T11:20:09.395Z,1017.91
2017-04-21T11:21:09.917Z,1017.90
2017-04-21T11:22:10.597Z,1017.93
2017-04-21T11:23:11.128Z,1017.84
2017-04-21T11:24:11.504Z,1017.91
2017-04-21T11:25:12.065Z,1017.86
2017-04-21T11:26:12.561Z,1017.87
2017-04-21T11:27:13.089Z,1017.87
2017-04-21T11:28:13.618Z,1017.70
2017-04-21T11:29:14.147Z,1017.76
2017-04-21T11:30:14.680Z,1017.85
2017-04-21T11:31:15.358Z,1017.84
2017-04-21T11:32:15.736Z,1017.84
2017-04-21T11:33:16.267Z,1017.77
2017-04-21T11:34:16.796Z,1017.81
2017-04-21T11:35:17.327Z,1017.79
2017-04-21T11:36:17.857Z,1017.87
2017-04-21T11:37:18.382Z,1017.83
2017-04-21T11:38:19.059Z,1017.77
2017-04-21T11:39:19.459Z,1017.79
2017-04-21T11:40:19.969Z,1017.75
2017-04-21T11:41:20.502Z,1017.73
2017-04-21T11:42:21.026Z,1017.70
2017-04-21T11:43:21.705Z,1017.74
2017-04-21T11:44:22.089Z,1017.73
2017-04-21T11:45:22.617Z,1017.78
2017-04-21T11:46:23.149Z,1017.77
2017-04-21T11:47:23.672Z,1017.75
2017-04-21T11:48:24.215Z,1017.74
2017-04-21T11:49:24.890Z,1017.72
2017-04-21T11:50:25.267Z,1017.58
2017-04-21T11:51:25.809Z,1017.63
2017-04-21T11:52:26.336Z,1017.60
2017-04-21T11:53:26.866Z,1017.63
2017-04-21T11:54:27.403Z,1017.67
2017-04-21T11:55:27.927Z,1017.61
2017-04-21T11:56:28.475Z,1017.59
2017-04-21T11:57:28.989Z,1017.57
2017-04-21T11:58:29.520Z,1017.62
2017-04-21T11:59:30.199Z,1017.53
2017-04-21T12:00:30.586Z,1017.58
2017-04-21T12:01:31.110Z,1017.57
2017-04-21T12:02:31.649Z,1017.54
2017-04-21T12:03:32.183Z,1017.46
2017-04-21T12:04:32.715Z,1017.45
2017-04-21T12:05:33.237Z,1017.37
2017-04-21T12:06:33.761Z,1017.38
2017-04-21T12:07:34.307Z,1017.36
2017-04-21T12:08:34.822Z,1017.23
2017-04-21T12:09:35.349Z,1017.38
2017-04-21T12:10:35.878Z,1017.36
2017-04-21T12:11:36.555Z,1017.32
2017-04-21T12:12:36.937Z,1017.34
2017-04-21T12:13:37.468Z,1017.32
2017-04-21T12:14:38.006Z,1017.25
2017-04-21T12:15:38.674Z,1017.19